M.y. Libra Star — 3ALV — position and weather

sailwx.info

Track history (hours):
 
Tides and Currents Weather Stations Pressure Air Temp Water Temp Dewpoint Dewpoint Depression Visibility Wind Speed Wind Dir Waves Ship Positions

M.y. Libra Star

Last reported at 2014-Jul-19 18:07 UTC. Time now 2014-Jul-22 15:30 UTC.
Position N 39°58' E 004°16'.

Length 40 m; draft 3 m.

Type: Pleasure craft. MMSI: 254450000.

Date/timePositionNaut miles runAvg speedWind from/ knotsBaromVisibWave heightAir tempDewpointWater temp
2014-Jul-19 18:07N 39°58' E 004°16'10 0.4
2014-Jul-18 16:09N 39°48' E 004°17'7 0.8
2014-Jul-18 06:23N 39°52' E 004°09'0 0.0
2014-Jul-18 05:29N 39°52' E 004°09'0 0.0
2014-Jul-18 04:26N 39°52' E 004°09'0 0.0
2014-Jul-18 02:23N 39°52' E 004°09'0 0.0
2014-Jul-18 01:23N 39°52' E 004°09'0 0.0
2014-Jul-18 00:29N 39°52' E 004°09'0 0.0
2014-Jul-17 23:14N 39°52' E 004°09'19 0.5
2014-Jul-16 06:33N 40°03' E 003°48'8814.0
2014-Jul-16 00:16N 41°14' E 004°57'1113.5
2014-Jul-15 23:26N 41°23' E 005°06'1213.7
2014-Jul-15 22:32N 41°33' E 005°15'1313.1
2014-Jul-15 21:33N 41°43' E 005°25'1413.9
2014-Jul-15 20:33N 41°54' E 005°36'1414.1
2014-Jul-15 19:34N 42°06' E 005°48'1413.9
2014-Jul-15 18:33N 42°17' E 005°59'1414.1
2014-Jul-15 17:33N 42°28' E 006°10'1414.5
2014-Jul-15 16:33N 42°40' E 006°22'1414.2
2014-Jul-15 15:34N 42°51' E 006°33'1514.6
2014-Jul-15 14:33N 43°03' E 006°45'1514.8
2014-Jul-15 13:34N 43°15' E 006°57'1514.8
2014-Jul-15 12:33N 43°27' E 007°09'17 0.7
2014-Jul-14 13:33N 43°42' E 007°20'0 0.0
2014-Jul-14 12:33N 43°42' E 007°20'0 0.3
2014-Jul-14 11:33N 43°42' E 007°21'5 4.3
2014-Jul-14 10:19N 43°45' E 007°27'3 4.2
2014-Jul-14 09:33N 43°43' E 007°24'2 2.2
2014-Jul-14 08:29N 43°42' E 007°21'0 0.0
2014-Jul-14 05:29N 43°42' E 007°21'0 0.0
2014-Jul-14 04:23N 43°42' E 007°21'0 0.0
2014-Jul-14 03:23N 43°42' E 007°21'0 0.0
2014-Jul-14 02:29N 43°42' E 007°21'0 0.0
2014-Jul-14 01:23N 43°42' E 007°21'0 0.0
2014-Jul-14 00:29N 43°42' E 007°21'0 0.0
2014-Jul-13 23:23N 43°42' E 007°21'0 0.0
2014-Jul-13 22:29N 43°42' E 007°21'0 0.0
2014-Jul-13 21:29N 43°42' E 007°21'0 0.0
2014-Jul-13 20:29N 43°42' E 007°21'0 0.0
2014-Jul-13 19:29N 43°42' E 007°21'7 7.8
2014-Jul-13 18:33N 43°36' E 007°14'1414.2
2014-Jul-13 17:34N 43°27' E 006°59'1514.8
2014-Jul-13 16:34N 43°19' E 006°42'5 5.1
2014-Jul-13 15:33N 43°14' E 006°40'0 0.0
2014-Jul-13 14:18N 43°14' E 006°40'0 0.1
2014-Jul-13 11:34N 43°14' E 006°40'3 3.0
2014-Jul-13 10:31N 43°16' E 006°38'0 0.0
2014-Jul-13 09:31N 43°16' E 006°38'0 0.0
2014-Jul-13 08:31N 43°16' E 006°38'0 0.0
2014-Jul-13 07:31N 43°16' E 006°38'0 0.0
2014-Jul-13 06:31N 43°16' E 006°38'0 0.0
2014-Jul-13 05:31N 43°16' E 006°38'0 0.0
2014-Jul-13 04:28N 43°16' E 006°38'0 0.0
2014-Jul-13 03:31N 43°16' E 006°38'0 0.0
2014-Jul-13 02:31N 43°16' E 006°38'0 0.0
2014-Jul-13 01:31N 43°16' E 006°38'0 0.0
2014-Jul-13 00:31N 43°16' E 006°38'0 0.0
2014-Jul-12 23:31N 43°16' E 006°38'0 0.0
2014-Jul-12 22:31N 43°16' E 006°38'0 0.0
2014-Jul-12 21:28N 43°16' E 006°38'0 0.0
2014-Jul-12 20:31N 43°16' E 006°38'0 0.0
2014-Jul-12 19:31N 43°16' E 006°38'0 0.0
2014-Jul-12 18:31N 43°16' E 006°38'0 0.0
2014-Jul-12 17:31N 43°16' E 006°38'0 0.0
2014-Jul-12 16:31N 43°16' E 006°38'0 0.0
2014-Jul-12 15:31N 43°16' E 006°38'0 0.0
2014-Jul-12 14:31N 43°16' E 006°38'0 0.0
2014-Jul-12 13:31N 43°16' E 006°38'1 0.7
2014-Jul-12 12:33N 43°16' E 006°37'0 0.4
2014-Jul-12 11:33N 43°17' E 006°38'3 3.2
2014-Jul-12 10:30N 43°14' E 006°40'0 0.1
2014-Jul-12 09:34N 43°14' E 006°40'2 2.2
2014-Jul-12 08:28N 43°16' E 006°40'1 1.4
2014-Jul-12 07:33N 43°17' E 006°38'0 0.3
2014-Jul-12 06:33N 43°16' E 006°38'0 0.0
2014-Jul-12 05:33N 43°16' E 006°38'0 0.0
2014-Jul-12 04:33N 43°16' E 006°38'0 0.0
2014-Jul-12 03:33N 43°16' E 006°38'0 0.0
2014-Jul-12 02:33N 43°16' E 006°38'0 0.0
2014-Jul-12 01:33N 43°16' E 006°38'0 0.0
2014-Jul-12 00:33N 43°16' E 006°38'0 0.0
2014-Jul-11 23:33N 43°16' E 006°38'0 0.0
2014-Jul-11 22:33N 43°16' E 006°38'0 0.0
2014-Jul-11 21:33N 43°16' E 006°38'0 0.0
2014-Jul-11 20:33N 43°16' E 006°38'0 0.0
2014-Jul-11 19:33N 43°16' E 006°38'0 0.0
2014-Jul-11 18:33N 43°16' E 006°38'1110.9
2014-Jul-11 17:33N 43°23' E 006°50'1514.5
2014-Jul-11 16:33N 43°31' E 007°06'1514.5
2014-Jul-11 15:33N 43°41' E 007°22'4 3.3
2014-Jul-11 14:15N 43°44' E 007°26'0 0.0
2014-Jul-11 13:33N 43°44' E 007°26'0 0.0
2014-Jul-11 12:15N 43°44' E 007°26'0 0.0
2014-Jul-11 09:06N 43°44' E 007°26'0 0.0
2014-Jul-11 04:24N 43°44' E 007°26'0 0.0
2014-Jul-11 03:33N 43°44' E 007°26'0 0.0
2014-Jul-10 20:09N 43°44' E 007°26'  
Track history (hours):
 
Tides and Currents Weather Stations Pressure Air Temp Water Temp Dewpoint Dewpoint Depression Visibility Wind Speed Wind Dir Waves Ship Positions

M.y. Libra Star

Last reported at 2014-Jul-19 18:07 UTC. Time now 2014-Jul-22 15:30 UTC.
Position N 39°58' E 004°16'.

Length 40 m; draft 3 m.

Type: Pleasure craft. MMSI: 254450000.

Date/timePositionNaut miles runAvg speedWind from/ knotsBaromVisibWave heightAir tempDewpointWater temp
2014-Jul-19 18:07N 39°58' E 004°16'10 0.4
2014-Jul-18 16:09N 39°48' E 004°17'7 0.8
2014-Jul-18 06:23N 39°52' E 004°09'0 0.0
2014-Jul-18 05:29N 39°52' E 004°09'0 0.0
2014-Jul-18 04:26N 39°52' E 004°09'0 0.0
2014-Jul-18 02:23N 39°52' E 004°09'0 0.0
2014-Jul-18 01:23N 39°52' E 004°09'0 0.0
2014-Jul-18 00:29N 39°52' E 004°09'0 0.0
2014-Jul-17 23:14N 39°52' E 004°09'19 0.5
2014-Jul-16 06:33N 40°03' E 003°48'8814.0
2014-Jul-16 00:16N 41°14' E 004°57'1113.5
2014-Jul-15 23:26N 41°23' E 005°06'1213.7
2014-Jul-15 22:32N 41°33' E 005°15'1313.1
2014-Jul-15 21:33N 41°43' E 005°25'1413.9
2014-Jul-15 20:33N 41°54' E 005°36'1414.1
2014-Jul-15 19:34N 42°06' E 005°48'1413.9
2014-Jul-15 18:33N 42°17' E 005°59'1414.1
2014-Jul-15 17:33N 42°28' E 006°10'1414.5
2014-Jul-15 16:33N 42°40' E 006°22'1414.2
2014-Jul-15 15:34N 42°51' E 006°33'1514.6
2014-Jul-15 14:33N 43°03' E 006°45'1514.8
2014-Jul-15 13:34N 43°15' E 006°57'1514.8
2014-Jul-15 12:33N 43°27' E 007°09'17 0.7
2014-Jul-14 13:33N 43°42' E 007°20'0 0.0
2014-Jul-14 12:33N 43°42' E 007°20'0 0.3
2014-Jul-14 11:33N 43°42' E 007°21'5 4.3
2014-Jul-14 10:19N 43°45' E 007°27'3 4.2
2014-Jul-14 09:33N 43°43' E 007°24'2 2.2
2014-Jul-14 08:29N 43°42' E 007°21'0 0.0
2014-Jul-14 05:29N 43°42' E 007°21'0 0.0
2014-Jul-14 04:23N 43°42' E 007°21'0 0.0
2014-Jul-14 03:23N 43°42' E 007°21'0 0.0
2014-Jul-14 02:29N 43°42' E 007°21'0 0.0
2014-Jul-14 01:23N 43°42' E 007°21'0 0.0
2014-Jul-14 00:29N 43°42' E 007°21'0 0.0
2014-Jul-13 23:23N 43°42' E 007°21'0 0.0
2014-Jul-13 22:29N 43°42' E 007°21'0 0.0
2014-Jul-13 21:29N 43°42' E 007°21'0 0.0
2014-Jul-13 20:29N 43°42' E 007°21'0 0.0
2014-Jul-13 19:29N 43°42' E 007°21'7 7.8
2014-Jul-13 18:33N 43°36' E 007°14'1414.2
2014-Jul-13 17:34N 43°27' E 006°59'1514.8
2014-Jul-13 16:34N 43°19' E 006°42'5 5.1
2014-Jul-13 15:33N 43°14' E 006°40'0 0.0
2014-Jul-13 14:18N 43°14' E 006°40'0 0.1
2014-Jul-13 11:34N 43°14' E 006°40'3 3.0
2014-Jul-13 10:31N 43°16' E 006°38'0 0.0
2014-Jul-13 09:31N 43°16' E 006°38'0 0.0
2014-Jul-13 08:31N 43°16' E 006°38'0 0.0
2014-Jul-13 07:31N 43°16' E 006°38'0 0.0
2014-Jul-13 06:31N 43°16' E 006°38'0 0.0
2014-Jul-13 05:31N 43°16' E 006°38'0 0.0
2014-Jul-13 04:28N 43°16' E 006°38'0 0.0
2014-Jul-13 03:31N 43°16' E 006°38'0 0.0
2014-Jul-13 02:31N 43°16' E 006°38'0 0.0
2014-Jul-13 01:31N 43°16' E 006°38'0 0.0
2014-Jul-13 00:31N 43°16' E 006°38'0 0.0
2014-Jul-12 23:31N 43°16' E 006°38'0 0.0
2014-Jul-12 22:31N 43°16' E 006°38'0 0.0
2014-Jul-12 21:28N 43°16' E 006°38'0 0.0
2014-Jul-12 20:31N 43°16' E 006°38'0 0.0
2014-Jul-12 19:31N 43°16' E 006°38'0 0.0
2014-Jul-12 18:31N 43°16' E 006°38'0 0.0
2014-Jul-12 17:31N 43°16' E 006°38'0 0.0
2014-Jul-12 16:31N 43°16' E 006°38'0 0.0
2014-Jul-12 15:31N 43°16' E 006°38'0 0.0
2014-Jul-12 14:31N 43°16' E 006°38'0 0.0
2014-Jul-12 13:31N 43°16' E 006°38'1 0.7
2014-Jul-12 12:33N 43°16' E 006°37'0 0.4
2014-Jul-12 11:33N 43°17' E 006°38'3 3.2
2014-Jul-12 10:30N 43°14' E 006°40'0 0.1
2014-Jul-12 09:34N 43°14' E 006°40'2 2.2
2014-Jul-12 08:28N 43°16' E 006°40'1 1.4
2014-Jul-12 07:33N 43°17' E 006°38'0 0.3
2014-Jul-12 06:33N 43°16' E 006°38'0 0.0
2014-Jul-12 05:33N 43°16' E 006°38'0 0.0
2014-Jul-12 04:33N 43°16' E 006°38'0 0.0
2014-Jul-12 03:33N 43°16' E 006°38'0 0.0
2014-Jul-12 02:33N 43°16' E 006°38'0 0.0
2014-Jul-12 01:33N 43°16' E 006°38'0 0.0
2014-Jul-12 00:33N 43°16' E 006°38'0 0.0
2014-Jul-11 23:33N 43°16' E 006°38'0 0.0
2014-Jul-11 22:33N 43°16' E 006°38'0 0.0
2014-Jul-11 21:33N 43°16' E 006°38'0 0.0
2014-Jul-11 20:33N 43°16' E 006°38'0 0.0
2014-Jul-11 19:33N 43°16' E 006°38'0 0.0
2014-Jul-11 18:33N 43°16' E 006°38'1110.9
2014-Jul-11 17:33N 43°23' E 006°50'1514.5
2014-Jul-11 16:33N 43°31' E 007°06'1514.5
2014-Jul-11 15:33N 43°41' E 007°22'4 3.3
2014-Jul-11 14:15N 43°44' E 007°26'0 0.0
2014-Jul-11 13:33N 43°44' E 007°26'0 0.0
2014-Jul-11 12:15N 43°44' E 007°26'0 0.0
2014-Jul-11 09:06N 43°44' E 007°26'0 0.0
2014-Jul-11 04:24N 43°44' E 007°26'0 0.0
2014-Jul-11 03:33N 43°44' E 007°26'0 0.0
2014-Jul-10 20:09N 43°44' E 007°26'  

Dump ship's entire track history